Montblanc, Spain
Current Conditions -  °F | °C
As of 9:30 AM on Thursday 29 Jan 2015 (Local Time) from LERS Reporting Station
Few Clouds Few Clouds  
Wind Chill: 54°   Ceiling: Unl
Heat Index: 54°   Visibility: 6mi
Dew Point: 37°   Wind: 6mph
Humidity: 54%   Direction: 110°ESE
Pressure: 29.83"   Gusts: NA
Location:  41.38°N, 1.16°E
Report Text: LERS 290830Z 11005KT 070V170 9999 FEW040 12/03 Q1010
Loading
Personal Weather Stations






























Interactive Weather Map New forecast layout! Learn more

10-Day Weather Forecast

Advertisements
Track Severe Weather on mobile